Time;durP1;ratioP1;P1;durP2;ratioP2;P2;SDS_P1;SDS_P2;PMS_P1;PMS_P2;Temp;Humidity;BMP_temperature;BMP_pressure;BME280_temperature;BME280_humidity;BME280_pressure;Samples;Min_cycle;Max_cycle;Signal;HPM_P1;HPM_P2
2023/08/06 00:01:40;;;;;;;14.32;12.18;;;15.20;99.90;;;;;;5111849;28;20027;-84
2023/08/06 00:04:06;;;;;;;16.75;13.20;;;15.20;99.90;;;;;;5131395;27;20095;-83
2023/08/06 00:06:31;;;;;;;16.15;13.27;;;15.10;99.90;;;;;;5117096;27;20473;-84
2023/08/06 00:08:57;;;;;;;16.15;13.85;;;15.30;99.90;;;;;;5096027;27;20038;-84
2023/08/06 00:11:22;;;;;;;22.10;17.98;;;15.20;99.90;;;;;;5104237;28;20046;-84
2023/08/06 00:13:48;;;;;;;24.15;17.98;;;15.20;99.90;;;;;;5119507;27;20439;-84
2023/08/06 00:16:14;;;;;;;20.95;16.65;;;15.10;99.90;;;;;;5113763;28;20039;-84
2023/08/06 00:18:40;;;;;;;22.63;17.65;;;15.10;99.90;;;;;;5125667;27;20121;-84
2023/08/06 00:21:06;;;;;;;20.52;16.35;;;15.10;99.90;;;;;;5135389;27;20035;-84
2023/08/06 00:23:31;;;;;;;23.92;17.95;;;15.10;99.90;;;;;;5131510;27;20046;-84
2023/08/06 00:25:57;;;;;;;17.65;14.60;;;15.10;99.90;;;;;;5119477;27;20066;-84
2023/08/06 00:28:23;;;;;;;17.80;13.13;;;15.10;99.90;;;;;;5139397;27;20042;-84
2023/08/06 00:30:55;;;;;;;23.77;14.93;;;15.10;99.90;;;;;;5100491;27;20038;-84
2023/08/06 00:33:22;;;;;;;13.25;10.85;;;14.90;99.90;;;;;;5138140;27;20046;-84
2023/08/06 00:35:47;;;;;;;16.83;11.52;;;15.10;99.90;;;;;;5156653;27;20031;-84
2023/08/06 00:38:13;;;;;;;13.20;10.45;;;15.10;99.90;;;;;;5142546;27;20037;-84
2023/08/06 00:40:39;;;;;;;14.95;10.82;;;15.10;99.90;;;;;;5163322;27;20027;-84
2023/08/06 00:43:05;;;;;;;12.60;9.40;;;15.10;99.90;;;;;;5161150;27;20023;-83
2023/08/06 00:45:34;;;;;;;10.40;8.07;;;15.10;99.90;;;;;;5157648;27;20046;-85
2023/08/06 00:48:00;;;;;;;11.25;8.70;;;15.30;99.90;;;;;;5156506;27;20030;-84
2023/08/06 00:50:26;;;;;;;12.98;8.05;;;15.10;99.90;;;;;;5162152;27;20035;-83
2023/08/06 00:52:53;;;;;;;13.70;10.13;;;15.20;99.90;;;;;;5109571;27;20038;-84
2023/08/06 00:55:18;;;;;;;15.05;10.18;;;15.10;99.90;;;;;;5122871;27;20039;-84
2023/08/06 00:57:44;;;;;;;12.70;9.77;;;15.10;99.90;;;;;;5125677;27;20042;-84
2023/08/06 01:00:11;;;;;;;11.93;9.18;;;15.00;99.90;;;;;;5140047;27;20506;-84
2023/08/06 01:02:37;;;;;;;13.45;8.98;;;15.10;99.90;;;;;;5106857;27;20051;-84
2023/08/06 01:05:03;;;;;;;11.50;9.32;;;15.10;99.90;;;;;;5123582;27;20080;-84
2023/08/06 01:08:05;;;;;;;11.25;8.77;;;15.10;99.90;;;;;;5135573;27;20070;-83
2023/08/06 01:10:39;;;;;;;15.32;10.98;;;15.10;99.90;;;;;;5121752;27;20031;-84
2023/08/06 01:13:05;;;;;;;;;;;15.10;99.90;;;;;;5118702;27;20049;-84
2023/08/06 01:15:36;;;;;;;13.38;10.13;;;15.10;99.90;;;;;;5113971;27;19920;-84
2023/08/06 01:18:02;;;;;;;11.85;9.15;;;15.10;99.90;;;;;;5136353;27;20500;-84
2023/08/06 01:20:30;;;;;;;15.95;10.38;;;15.00;99.90;;;;;;5118980;27;20039;-84
2023/08/06 01:22:55;;;;;;;14.57;10.38;;;15.00;99.90;;;;;;5132974;27;20035;-84
2023/08/06 01:25:46;;;;;;;14.32;9.57;;;14.90;99.90;;;;;;5140279;27;20523;-84
2023/08/06 01:28:27;;;;;;;14.20;10.38;;;15.00;99.90;;;;;;5118398;27;20042;-84
2023/08/06 01:30:55;;;;;;;15.20;11.18;;;15.00;99.90;;;;;;5138054;27;20049;-84
2023/08/06 01:33:22;;;;;;;13.38;11.20;;;15.00;99.90;;;;;;5135925;27;20035;-84
2023/08/06 01:35:50;;;;;;;15.98;12.38;;;15.00;99.90;;;;;;5099349;27;20053;-84
2023/08/06 01:38:16;;;;;;;19.95;12.45;;;15.00;99.90;;;;;;5115958;27;20080;-84
2023/08/06 01:40:41;;;;;;;16.02;10.45;;;15.10;99.90;;;;;;5142178;27;20419;-84
2023/08/06 01:43:07;;;;;;;14.25;10.90;;;15.00;99.90;;;;;;5115966;27;20035;-84
2023/08/06 01:45:32;;;;;;;14.52;11.40;;;15.00;99.90;;;;;;5132417;27;20073;-83
2023/08/06 01:47:58;;;;;;;16.20;12.55;;;15.00;99.90;;;;;;5114336;27;20080;-84
2023/08/06 01:50:24;;;;;;;14.55;12.57;;;15.00;99.90;;;;;;5117039;27;20087;-84
2023/08/06 01:52:49;;;;;;;16.92;12.50;;;15.00;99.90;;;;;;5131578;27;20035;-84
2023/08/06 01:55:15;;;;;;;20.38;13.02;;;14.90;99.90;;;;;;5131089;27;20447;-84
2023/08/06 01:57:41;;;;;;;17.25;11.88;;;15.00;99.90;;;;;;5123890;27;20035;-85
2023/08/06 02:00:07;;;;;;;14.50;11.45;;;14.90;99.90;;;;;;5135663;27;20830;-84
2023/08/06 02:02:33;;;;;;;13.68;10.55;;;14.90;99.90;;;;;;5131197;27;20051;-84
2023/08/06 02:04:59;;;;;;;15.68;12.48;;;15.00;99.90;;;;;;5111710;27;20126;-83
2023/08/06 02:07:25;;;;;;;14.88;11.25;;;14.90;99.90;;;;;;5134618;27;20118;-84
2023/08/06 02:09:50;;;;;;;12.80;10.27;;;15.00;99.90;;;;;;5131617;27;20537;-84
2023/08/06 02:12:16;;;;;;;18.15;12.85;;;14.90;99.90;;;;;;5104660;27;20039;-84
2023/08/06 02:14:41;;;;;;;14.40;12.07;;;15.00;99.90;;;;;;5120193;27;20035;-84
2023/08/06 02:17:07;;;;;;;13.93;10.38;;;15.00;99.90;;;;;;5112897;27;20141;-84
2023/08/06 02:19:32;;;;;;;15.20;11.68;;;15.00;99.90;;;;;;5132886;27;20042;-84
2023/08/06 02:21:58;;;;;;;14.63;10.05;;;15.00;99.90;;;;;;5121540;27;20114;-84
2023/08/06 02:24:24;;;;;;;15.45;11.77;;;15.00;99.90;;;;;;5116588;27;20070;-84
2023/08/06 02:26:51;;;;;;;14.93;12.18;;;14.90;99.90;;;;;;5124139;27;20039;-83
2023/08/06 02:29:17;;;;;;;13.57;10.65;;;15.00;99.90;;;;;;5116914;27;20066;-84
2023/08/06 02:31:42;;;;;;;13.23;10.95;;;15.00;99.90;;;;;;5101848;27;20048;-84
2023/08/06 02:34:08;;;;;;;16.83;11.18;;;14.90;99.90;;;;;;5133959;27;20149;-83
2023/08/06 02:36:34;;;;;;;13.52;10.13;;;15.00;99.90;;;;;;5141969;27;20062;-83
2023/08/06 02:38:59;;;;;;;14.73;11.40;;;15.00;99.90;;;;;;5103676;27;20477;-83
2023/08/06 02:41:25;;;;;;;12.50;9.80;;;15.10;99.90;;;;;;5143601;27;20090;-84
2023/08/06 02:43:52;;;;;;;14.57;10.18;;;14.90;99.90;;;;;;5110063;27;20269;-84
2023/08/06 02:46:17;;;;;;;15.20;11.52;;;15.00;99.90;;;;;;5132916;27;20649;-84
2023/08/06 02:48:43;;;;;;;11.38;9.57;;;15.20;99.90;;;;;;5112769;27;20031;-84
2023/08/06 02:51:08;;;;;;;13.32;10.40;;;14.90;99.90;;;;;;5127017;27;20041;-84
2023/08/06 02:53:34;;;;;;;12.93;10.63;;;14.90;99.90;;;;;;5120619;27;20114;-83
2023/08/06 02:56:00;;;;;;;13.32;9.88;;;14.80;99.90;;;;;;5114440;27;20035;-84
2023/08/06 02:58:25;;;;;;;14.35;10.20;;;14.90;99.90;;;;;;5116648;27;20035;-84
2023/08/06 03:01:02;;;;;;;13.88;11.07;;;14.80;99.90;;;;;;5137026;27;20027;-84
2023/08/06 03:03:28;;;;;;;13.98;10.48;;;14.90;99.90;;;;;;5131593;27;20055;-84
2023/08/06 03:05:54;;;;;;;16.13;8.90;;;14.90;99.90;;;;;;5112603;27;20248;-83
2023/08/06 03:08:22;;;;;;;17.00;11.50;;;14.90;99.90;;;;;;5136987;27;20053;-84
2023/08/06 03:10:51;;;;;;;13.02;9.07;;;14.90;99.90;;;;;;5117683;27;20119;-84
2023/08/06 03:13:17;;;;;;;10.50;8.70;;;14.80;99.90;;;;;;5115274;27;20470;-84
2023/08/06 03:15:43;;;;;;;12.25;9.48;;;14.80;99.90;;;;;;5111092;27;20122;-84
2023/08/06 03:18:09;;;;;;;13.10;10.38;;;14.80;99.90;;;;;;5118768;27;20035;-84
2023/08/06 03:20:35;;;;;;;12.73;10.55;;;15.00;99.90;;;;;;5112329;27;20107;-84
2023/08/06 03:23:00;;;;;;;13.40;10.85;;;14.80;99.90;;;;;;5112460;27;20075;-84
2023/08/06 03:25:26;;;;;;;12.98;8.88;;;14.80;99.90;;;;;;5114315;27;20031;-84
2023/08/06 03:27:51;;;;;;;17.05;10.73;;;14.90;99.90;;;;;;5118115;27;20126;-84
2023/08/06 03:30:17;;;;;;;11.93;9.48;;;14.80;99.90;;;;;;5095990;27;20509;-84
2023/08/06 03:32:43;;;;;;;14.05;11.20;;;14.80;99.90;;;;;;5130450;27;20609;-84
2023/08/06 03:35:08;;;;;;;10.93;8.35;;;14.80;99.90;;;;;;5129993;27;20091;-84
2023/08/06 03:37:34;;;;;;;13.88;10.63;;;14.80;99.90;;;;;;5131967;27;20053;-83
2023/08/06 03:39:59;;;;;;;10.95;9.43;;;14.80;99.90;;;;;;5136818;27;20037;-84
2023/08/06 03:42:25;;;;;;;11.95;9.32;;;14.80;99.90;;;;;;5116268;27;20047;-84
2023/08/06 03:44:50;;;;;;;10.75;9.35;;;14.70;99.90;;;;;;5098484;27;20118;-84
2023/08/06 03:47:16;;;;;;;14.07;10.25;;;14.70;99.90;;;;;;5120590;27;20421;-84
2023/08/06 03:49:43;;;;;;;13.45;10.88;;;14.90;99.90;;;;;;5135733;27;20039;-84
2023/08/06 03:52:08;;;;;;;11.10;8.65;;;14.70;99.90;;;;;;5131027;27;20067;-84
2023/08/06 03:54:34;;;;;;;10.93;7.55;;;14.70;99.90;;;;;;5118420;27;20066;-84
2023/08/06 03:57:00;;;;;;;12.90;8.70;;;14.70;99.90;;;;;;5112567;27;20042;-84
2023/08/06 03:59:25;;;;;;;10.60;7.53;;;14.90;99.90;;;;;;5120551;27;20102;-85
2023/08/06 04:01:51;;;;;;;16.70;10.07;;;14.70;99.90;;;;;;5114216;28;20058;-83
2023/08/06 04:04:16;;;;;;;12.55;10.32;;;14.70;99.90;;;;;;5134531;27;20401;-84
2023/08/06 04:06:42;;;;;;;11.02;7.70;;;14.60;99.90;;;;;;5127090;27;20319;-84
2023/08/06 04:09:08;;;;;;;12.32;7.57;;;14.60;99.90;;;;;;5123745;27;20370;-84
2023/08/06 04:11:33;;;;;;;13.02;10.18;;;14.60;99.90;;;;;;5108409;27;20057;-84
2023/08/06 04:13:59;;;;;;;12.32;8.52;;;14.50;99.90;;;;;;5100340;27;20039;-84
2023/08/06 04:16:26;;;;;;;13.65;9.13;;;14.70;99.90;;;;;;5102901;27;20126;-84
2023/08/06 04:18:53;;;;;;;13.43;10.48;;;14.50;99.90;;;;;;5146756;27;20109;-84
2023/08/06 04:21:19;;;;;;;13.43;10.27;;;14.50;99.90;;;;;;5121613;27;20045;-84
2023/08/06 04:23:45;;;;;;;11.88;9.50;;;14.40;99.90;;;;;;5114365;27;20035;-84
2023/08/06 04:26:10;;;;;;;11.00;7.72;;;14.40;99.90;;;;;;5122969;27;20038;-84
2023/08/06 04:28:36;;;;;;;12.55;8.73;;;14.40;99.90;;;;;;5119172;27;20465;-84
2023/08/06 04:31:01;;;;;;;10.82;8.38;;;14.40;99.90;;;;;;5118677;27;20085;-84
2023/08/06 04:33:27;;;;;;;14.45;10.43;;;14.40;99.90;;;;;;5119347;27;20043;-84
2023/08/06 04:35:56;;;;;;;16.27;11.32;;;14.40;99.90;;;;;;5139932;27;20102;-84
2023/08/06 04:38:24;;;;;;;15.43;10.50;;;14.40;99.90;;;;;;5117642;27;20035;-84
2023/08/06 04:40:50;;;;;;;17.95;13.38;;;14.40;99.90;;;;;;5135082;27;20100;-84
2023/08/06 04:43:16;;;;;;;15.05;11.82;;;14.40;99.90;;;;;;5108585;27;20428;-84
2023/08/06 04:45:53;;;;;;;15.85;13.13;;;14.40;99.90;;;;;;5132852;27;20027;-83
2023/08/06 04:48:19;;;;;;;15.80;11.80;;;14.30;99.90;;;;;;5137941;27;20066;-84
2023/08/06 04:50:45;;;;;;;19.38;11.18;;;14.30;99.90;;;;;;5122730;27;20069;-84
2023/08/06 04:53:11;;;;;;;15.40;11.40;;;14.30;99.90;;;;;;5116253;27;20107;-84
2023/08/06 04:55:37;;;;;;;18.70;13.68;;;14.20;99.90;;;;;;5121278;27;20031;-84
2023/08/06 04:58:03;;;;;;;13.52;10.27;;;14.20;99.90;;;;;;5116945;27;20138;-84
2023/08/06 05:00:28;;;;;;;20.45;13.07;;;14.20;99.90;;;;;;5116964;27;20042;-84
2023/08/06 05:02:54;;;;;;;21.83;14.00;;;14.20;99.90;;;;;;5134928;27;20035;-83
2023/08/06 05:05:20;;;;;;;11.07;8.32;;;14.40;99.90;;;;;;5121812;27;20043;-84
2023/08/06 05:07:48;;;;;;;16.50;12.45;;;14.20;99.90;;;;;;5124326;27;20027;-84
2023/08/06 05:10:14;;;;;;;18.63;13.57;;;14.10;99.90;;;;;;5108221;27;20035;-84
2023/08/06 05:12:40;;;;;;;14.77;11.77;;;14.20;99.90;;;;;;5113640;27;20386;-84
2023/08/06 05:15:05;;;;;;;19.27;13.35;;;14.20;99.90;;;;;;5131950;27;20133;-84
2023/08/06 05:17:31;;;;;;;17.92;13.32;;;14.20;99.90;;;;;;5115335;27;20035;-83
2023/08/06 05:19:57;;;;;;;13.38;11.05;;;14.20;99.90;;;;;;5132635;27;20031;-84
2023/08/06 05:22:22;;;;;;;13.00;9.05;;;14.20;99.90;;;;;;5119512;27;20120;-84
2023/08/06 05:24:48;;;;;;;13.98;10.98;;;14.20;99.90;;;;;;5139335;27;20063;-84
2023/08/06 05:27:13;;;;;;;18.90;13.05;;;14.20;99.90;;;;;;5127430;27;20125;-84
2023/08/06 05:29:40;;;;;;;17.75;12.70;;;14.10;99.90;;;;;;5125808;27;20182;-84
2023/08/06 05:32:06;;;;;;;19.90;13.57;;;14.20;99.90;;;;;;5114201;27;20046;-83
2023/08/06 05:34:32;;;;;;;10.48;7.25;;;14.20;99.90;;;;;;5109359;27;20078;-84
2023/08/06 05:36:58;;;;;;;15.88;10.80;;;14.20;99.90;;;;;;5100766;27;20047;-84
2023/08/06 05:39:23;;;;;;;14.38;10.48;;;14.20;99.90;;;;;;5120410;27;20039;-84
2023/08/06 05:41:50;;;;;;;14.70;10.15;;;14.50;99.90;;;;;;5123962;27;20057;-84
2023/08/06 05:44:15;;;;;;;17.55;12.80;;;14.20;99.90;;;;;;5118082;27;20035;-84
2023/08/06 05:46:41;;;;;;;17.70;13.55;;;14.50;99.90;;;;;;5139719;27;20266;-84
2023/08/06 05:49:07;;;;;;;12.00;8.63;;;14.20;99.90;;;;;;5135703;27;20133;-85
2023/08/06 05:51:32;;;;;;;16.77;12.20;;;14.20;99.90;;;;;;5117672;27;20473;-84
2023/08/06 05:53:58;;;;;;;16.77;13.15;;;14.30;99.90;;;;;;5101993;27;20039;-84
2023/08/06 05:56:23;;;;;;;14.45;11.10;;;14.30;99.90;;;;;;5135177;27;20142;-84
2023/08/06 05:58:52;;;;;;;13.57;9.50;;;14.30;99.90;;;;;;5137776;27;20044;-84
2023/08/06 06:01:18;;;;;;;12.48;9.30;;;14.50;99.90;;;;;;5109957;27;20563;-84
2023/08/06 06:03:44;;;;;;;13.43;10.60;;;14.40;99.90;;;;;;5123453;27;20047;-84
2023/08/06 06:06:09;;;;;;;21.70;13.20;;;14.40;99.90;;;;;;5123308;27;20528;-84
2023/08/06 06:08:35;;;;;;;14.95;11.20;;;14.40;99.90;;;;;;5099282;27;20146;-84
2023/08/06 06:11:00;;;;;;;15.38;11.55;;;14.70;99.90;;;;;;5134967;27;20043;-84
2023/08/06 06:13:26;;;;;;;15.20;10.15;;;14.50;99.90;;;;;;5137005;27;20070;-84
2023/08/06 06:15:55;;;;;;;12.88;9.93;;;14.60;99.90;;;;;;5114316;27;20397;-84
2023/08/06 06:18:21;;;;;;;14.45;11.23;;;14.60;99.90;;;;;;5142313;27;20031;-84
2023/08/06 06:20:47;;;;;;;15.75;9.75;;;14.60;99.90;;;;;;5123681;27;20500;-84
2023/08/06 06:23:12;;;;;;;11.15;8.32;;;14.70;99.90;;;;;;5113309;27;20375;-84
2023/08/06 06:25:49;;;;;;;17.98;9.57;;;14.80;99.90;;;;;;5118086;27;20031;-84
2023/08/06 06:28:14;;;;;;;19.73;12.45;;;14.80;99.90;;;;;;5118621;27;20035;-84
2023/08/06 06:30:43;;;;;;;18.85;13.63;;;14.90;99.90;;;;;;5115794;27;20214;-84
2023/08/06 06:33:08;;;;;;;13.85;9.88;;;15.00;99.90;;;;;;5117187;27;20031;-84
2023/08/06 06:35:34;;;;;;;9.98;7.82;;;15.00;99.90;;;;;;5135617;27;20132;-84
2023/08/06 06:38:00;;;;;;;17.77;11.05;;;15.00;99.90;;;;;;5122567;27;20053;-84
2023/08/06 06:40:26;;;;;;;17.92;13.00;;;15.10;99.90;;;;;;5142230;27;20039;-85
2023/08/06 06:42:51;;;;;;;17.15;13.77;;;15.10;99.90;;;;;;5138614;27;20065;-84
2023/08/06 06:45:17;;;;;;;15.95;12.73;;;15.20;99.90;;;;;;5132232;27;20067;-84
2023/08/06 06:47:43;;;;;;;18.20;13.07;;;15.40;99.90;;;;;;5119899;27;20047;-84
2023/08/06 06:50:09;;;;;;;20.15;13.98;;;15.20;99.90;;;;;;5136885;27;20173;-84
2023/08/06 06:52:34;;;;;;;16.48;12.70;;;15.30;99.90;;;;;;5116861;27;20079;-84
2023/08/06 06:55:00;;;;;;;15.95;11.63;;;15.40;99.90;;;;;;5116249;27;20685;-84
2023/08/06 06:57:26;;;;;;;15.85;12.80;;;15.40;99.90;;;;;;5115420;27;20035;-84
2023/08/06 06:59:51;;;;;;;17.50;11.65;;;15.40;99.90;;;;;;5117743;27;20035;-84
2023/08/06 07:02:17;;;;;;;15.70;11.73;;;15.50;99.90;;;;;;5097096;27;20651;-84
2023/08/06 07:04:42;;;;;;;16.15;12.43;;;15.60;99.90;;;;;;5131610;27;20043;-84
2023/08/06 07:07:08;;;;;;;14.88;11.57;;;15.60;99.90;;;;;;5117656;27;20164;-83
2023/08/06 07:09:33;;;;;;;15.93;11.73;;;15.60;99.90;;;;;;5121625;27;20371;-84
2023/08/06 07:11:59;;;;;;;14.85;10.43;;;15.70;99.90;;;;;;5111289;27;20031;-84
2023/08/06 07:14:27;;;;;;;14.90;11.35;;;15.70;99.90;;;;;;5112768;27;20081;-84
2023/08/06 07:16:53;;;;;;;12.73;10.50;;;15.70;99.90;;;;;;5113155;27;20142;-85
2023/08/06 07:19:18;;;;;;;14.32;12.18;;;15.70;99.90;;;;;;5118088;27;20126;-84
2023/08/06 07:21:44;;;;;;;16.85;11.48;;;15.80;99.90;;;;;;5111846;27;20034;-84
2023/08/06 07:24:09;;;;;;;11.40;9.40;;;15.80;99.90;;;;;;5111979;27;20043;-85
2023/08/06 07:26:35;;;;;;;13.85;10.73;;;15.80;99.90;;;;;;5095745;27;20034;-84
2023/08/06 07:29:01;;;;;;;10.93;8.45;;;15.90;99.90;;;;;;5115380;28;20035;-85
2023/08/06 07:31:27;;;;;;;14.77;10.60;;;15.90;99.90;;;;;;5111480;27;20489;-84
2023/08/06 07:33:52;;;;;;;15.57;11.93;;;16.00;99.90;;;;;;5130040;27;20382;-85
2023/08/06 07:36:18;;;;;;;15.18;11.80;;;16.20;99.90;;;;;;5133060;27;20042;-85
2023/08/06 07:38:44;;;;;;;15.82;12.07;;;16.10;99.90;;;;;;5136513;27;20026;-84
2023/08/06 07:41:09;;;;;;;16.65;13.20;;;16.40;99.90;;;;;;5120831;27;20422;-84
2023/08/06 07:43:35;;;;;;;12.60;9.25;;;16.30;99.90;;;;;;5114736;27;20038;-85
2023/08/06 07:46:01;;;;;;;13.98;10.85;;;16.40;99.90;;;;;;5117329;27;20057;-84
2023/08/06 07:48:28;;;;;;;15.13;11.32;;;16.60;99.90;;;;;;5141538;27;20500;-85
2023/08/06 07:50:54;;;;;;;14.82;10.23;;;16.50;99.90;;;;;;5138125;27;20496;-83
2023/08/06 07:53:26;;;;;;;9.35;7.43;;;16.60;99.90;;;;;;5138067;27;20055;-84
2023/08/06 07:55:54;;;;;;;12.15;8.52;;;16.50;99.90;;;;;;5141994;27;20050;-84
2023/08/06 07:58:23;;;;;;;10.30;8.63;;;16.60;99.90;;;;;;5104860;27;20083;-84
2023/08/06 08:00:49;;;;;;;17.92;11.52;;;16.60;99.90;;;;;;5106430;27;20042;-84
2023/08/06 08:03:16;;;;;;;10.43;7.85;;;16.70;99.90;;;;;;5101911;27;20489;-83
2023/08/06 08:05:42;;;;;;;10.32;9.23;;;16.70;99.90;;;;;;5142876;27;20047;-84
2023/08/06 08:08:08;;;;;;;12.93;10.30;;;16.80;99.90;;;;;;5115935;27;20073;-84
2023/08/06 08:10:34;;;;;;;11.10;9.77;;;17.00;99.90;;;;;;5122298;27;20117;-84
2023/08/06 08:13:04;;;;;;;14.18;10.57;;;16.90;99.90;;;;;;5135339;27;20160;-85
2023/08/06 08:15:30;;;;;;;14.13;11.15;;;16.90;99.90;;;;;;5135730;27;20070;-84
2023/08/06 08:17:56;;;;;;;9.20;7.22;;;17.00;99.90;;;;;;5102138;27;20043;-83
2023/08/06 08:20:22;;;;;;;9.23;6.55;;;17.10;99.90;;;;;;5139493;27;20035;-84
2023/08/06 08:22:48;;;;;;;8.27;6.03;;;17.10;99.90;;;;;;5116468;27;20118;-84
2023/08/06 08:25:14;;;;;;;10.82;9.05;;;17.30;99.90;;;;;;5119158;27;20093;-84
2023/08/06 08:27:39;;;;;;;10.90;8.68;;;17.20;99.90;;;;;;5099259;27;20027;-84
2023/08/06 08:30:07;;;;;;;10.02;7.40;;;17.30;99.90;;;;;;5116767;27;20034;-84
2023/08/06 08:32:32;;;;;;;8.43;6.68;;;17.40;99.90;;;;;;5109098;27;20073;-85
2023/08/06 08:34:58;;;;;;;10.63;8.93;;;17.40;99.90;;;;;;5114710;27;20075;-84
2023/08/06 08:37:24;;;;;;;9.75;7.30;;;17.50;99.90;;;;;;5111685;27;20049;-84
2023/08/06 08:39:50;;;;;;;13.02;9.05;;;17.50;99.90;;;;;;5108960;27;20034;-84
2023/08/06 08:42:16;;;;;;;9.30;7.70;;;17.50;99.90;;;;;;5138163;27;20478;-84
2023/08/06 08:44:43;;;;;;;8.07;6.85;;;17.60;99.90;;;;;;5114836;27;20478;-84
2023/08/06 08:47:10;;;;;;;9.55;6.38;;;17.60;99.90;;;;;;5127846;27;20051;-84
2023/08/06 08:49:36;;;;;;;8.43;6.65;;;17.70;99.90;;;;;;5120180;27;20071;-84
2023/08/06 08:52:06;;;;;;;9.43;6.15;;;17.60;99.90;;;;;;5114794;27;20039;-84
2023/08/06 08:54:34;;;;;;;13.32;7.88;;;17.70;99.90;;;;;;5134683;27;20087;-84
2023/08/06 08:56:59;;;;;;;9.73;6.43;;;17.70;99.90;;;;;;5102926;27;20047;-83
2023/08/06 08:59:27;;;;;;;9.02;6.38;;;17.70;99.90;;;;;;5118261;27;20042;-83
2023/08/06 09:01:54;;;;;;;9.13;6.05;;;17.80;99.90;;;;;;5117110;27;20074;-84
2023/08/06 09:04:20;;;;;;;7.82;6.05;;;18.00;99.90;;;;;;5138157;27;20401;-83
2023/08/06 09:06:51;;;;;;;8.90;5.70;;;18.20;99.90;;;;;;5121425;27;20042;-82
2023/08/06 09:09:28;;;;;;;9.48;5.57;;;18.30;99.90;;;;;;5115989;27;20058;-83
2023/08/06 09:11:59;;;;;;;5.07;4.07;;;18.40;99.90;;;;;;5114982;27;20697;-83
2023/08/06 09:14:26;;;;;;;6.65;5.47;;;18.50;99.90;;;;;;5116937;27;20059;-83
2023/08/06 09:16:52;;;;;;;7.80;4.63;;;18.50;99.90;;;;;;5139508;27;20111;-83
2023/08/06 09:19:18;;;;;;;8.60;5.00;;;18.60;99.90;;;;;;5116213;27;20042;-82
2023/08/06 09:21:48;;;;;;;9.05;4.78;;;18.70;99.90;;;;;;5116082;27;20039;-82
2023/08/06 09:24:14;;;;;;;6.78;4.45;;;18.70;99.90;;;;;;5102252;27;20512;-83
2023/08/06 09:26:42;;;;;;;6.50;3.90;;;18.80;99.90;;;;;;5115340;27;20517;-83
2023/08/06 09:29:11;;;;;;;6.88;3.08;;;18.90;99.90;;;;;;5136656;27;20039;-85
2023/08/06 09:31:44;;;;;;;5.53;3.17;;;18.90;99.90;;;;;;5111692;27;20032;-84
2023/08/06 09:34:17;;;;;;;6.65;3.30;;;19.00;99.90;;;;;;5123416;27;20045;-84
2023/08/06 09:36:56;;;;;;;5.53;3.10;;;19.00;99.90;;;;;;5107493;27;20031;-85
2023/08/06 09:39:28;;;;;;;5.28;3.22;;;19.10;99.90;;;;;;5112648;27;20092;-83
2023/08/06 09:41:58;;;;;;;4.30;2.72;;;19.40;99.90;;;;;;5113218;27;20050;-83
2023/08/06 09:44:25;;;;;;;5.43;2.78;;;19.50;99.90;;;;;;5134706;27;20489;-84
2023/08/06 09:46:53;;;;;;;5.15;2.83;;;19.60;99.90;;;;;;5098464;27;20121;-85
2023/08/06 09:49:20;;;;;;;4.28;2.50;;;19.70;99.90;;;;;;5134505;27;20067;-84
2023/08/06 09:51:51;;;;;;;5.50;2.53;;;19.80;99.90;;;;;;5134725;27;20712;-85
2023/08/06 09:54:18;;;;;;;4.78;2.88;;;19.80;99.90;;;;;;5122247;27;20420;-86
2023/08/06 09:56:44;;;;;;;5.85;2.95;;;19.90;99.90;;;;;;5118443;27;20473;-85
2023/08/06 09:59:11;;;;;;;5.00;2.63;;;19.90;99.90;;;;;;5137984;27;20039;-86
2023/08/06 10:01:37;;;;;;;5.30;2.97;;;20.00;99.90;;;;;;5136222;27;20084;-85
2023/08/06 10:04:04;;;;;;;4.38;2.47;;;20.00;99.90;;;;;;5131554;27;20062;-86
2023/08/06 10:06:37;;;;;;;4.30;2.13;;;20.10;99.90;;;;;;5105475;27;20038;-86
2023/08/06 10:09:04;;;;;;;4.40;2.45;;;20.10;99.90;;;;;;5112420;27;20031;-82
2023/08/06 10:11:30;;;;;;;4.05;2.33;;;20.10;99.90;;;;;;5112588;27;20035;-83
2023/08/06 10:14:03;;;;;;;4.07;1.92;;;20.10;99.90;;;;;;5132181;27;20038;-83
2023/08/06 10:16:30;;;;;;;4.07;2.05;;;20.20;99.90;;;;;;5129906;27;20031;-83
2023/08/06 10:18:56;;;;;;;3.53;1.90;;;20.30;99.90;;;;;;5106002;27;20126;-83
2023/08/06 10:21:24;;;;;;;4.03;1.73;;;20.30;99.90;;;;;;5118936;27;20042;-83
2023/08/06 10:23:54;;;;;;;5.53;2.45;;;20.50;99.90;;;;;;5116033;27;20043;-83
2023/08/06 10:26:20;;;;;;;4.32;1.92;;;20.70;99.90;;;;;;5117990;27;20043;-84
2023/08/06 10:28:46;;;;;;;3.28;1.60;;;20.80;99.90;;;;;;5114172;27;20072;-82
2023/08/06 10:31:11;;;;;;;4.43;1.98;;;20.90;99.90;;;;;;5129116;27;20054;-83
2023/08/06 10:33:48;;;;;;;4.50;1.98;;;20.90;99.90;;;;;;5112084;27;20121;-83
2023/08/06 10:36:14;;;;;;;3.28;1.50;;;21.00;99.90;;;;;;5133963;27;20038;-84
2023/08/06 10:38:50;;;;;;;3.95;1.80;;;21.20;99.90;;;;;;5137565;27;20527;-84
2023/08/06 10:41:27;;;;;;;3.03;1.58;;;21.40;99.90;;;;;;5114676;27;20523;-83
2023/08/06 10:44:09;;;;;;;2.83;1.60;;;21.60;99.90;;;;;;5129955;27;20043;-85
2023/08/06 10:46:35;;;;;;;4.22;1.67;;;21.70;99.90;;;;;;5135012;27;20038;-84
2023/08/06 10:49:01;;;;;;;4.60;2.00;;;21.70;99.90;;;;;;5114417;27;20477;-84
2023/08/06 10:51:27;;;;;;;4.88;1.92;;;21.70;99.90;;;;;;5136723;27;20061;-83
2023/08/06 10:53:53;;;;;;;4.10;1.50;;;21.60;99.90;;;;;;5111187;27;20035;-84
2023/08/06 10:56:26;;;;;;;3.10;1.55;;;21.60;99.90;;;;;;5121138;27;20043;-82
2023/08/06 10:58:58;;;;;;;2.60;1.42;;;21.60;99.90;;;;;;5100751;27;20191;-84
2023/08/06 11:01:24;;;;;;;4.88;1.50;;;21.70;99.90;;;;;;5116636;27;20122;-84
2023/08/06 11:03:50;;;;;;;3.35;1.60;;;21.90;99.90;;;;;;5119558;27;20141;-84
2023/08/06 11:06:23;;;;;;;4.22;1.88;;;22.00;99.90;;;;;;5096120;27;20462;-86
2023/08/06 11:08:53;;;;;;;2.38;1.35;;;22.20;99.90;;;;;;5099102;27;20073;-85
2023/08/06 11:11:19;;;;;;;3.92;1.58;;;22.20;99.90;;;;;;5095022;27;20035;-85
2023/08/06 11:13:49;;;;;;;3.17;1.42;;;22.30;99.90;;;;;;5096265;28;20035;-85
2023/08/06 11:16:16;;;;;;;2.95;1.60;;;22.30;99.90;;;;;;5132305;27;20494;-85
2023/08/06 11:18:42;;;;;;;4.63;1.67;;;22.30;99.90;;;;;;5111892;27;20038;-86
2023/08/06 11:21:08;;;;;;;3.83;1.90;;;22.20;99.90;;;;;;5131469;27;20050;-86
2023/08/06 11:23:35;;;;;;;3.78;1.50;;;22.20;99.90;;;;;;5118337;27;20035;-86
2023/08/06 11:26:01;;;;;;;3.60;1.20;;;22.20;99.90;;;;;;5114737;27;20513;-86
2023/08/06 11:28:26;;;;;;;2.75;1.42;;;22.10;99.90;;;;;;5114520;27;20035;-82
2023/08/06 11:30:55;;;;;;;5.72;1.50;;;22.00;99.90;;;;;;5136122;27;20027;-82
2023/08/06 11:33:27;;;;;;;3.33;1.10;;;22.00;99.90;;;;;;5141055;27;20050;-86
2023/08/06 11:35:57;;;;;;;2.75;1.30;;;22.00;99.90;;;;;;5116506;27;20435;-83
2023/08/06 11:38:28;;;;;;;3.65;1.40;;;22.00;99.90;;;;;;5113604;27;20065;-83
2023/08/06 11:40:54;;;;;;;3.47;1.63;;;22.10;99.90;;;;;;5111429;28;20100;-83
2023/08/06 11:43:22;;;;;;;3.00;1.58;;;22.20;99.90;;;;;;5129728;27;20051;-83
2023/08/06 11:45:48;;;;;;;3.67;1.38;;;22.20;99.90;;;;;;5140904;27;20572;-83
2023/08/06 11:48:14;;;;;;;4.80;1.83;;;22.30;99.90;;;;;;5132401;27;20074;-83
2023/08/06 11:50:40;;;;;;;4.00;1.35;;;22.40;99.90;;;;;;5112027;28;20100;-83
2023/08/06 11:53:06;;;;;;;3.53;1.40;;;22.50;99.90;;;;;;5093788;27;20465;-83
2023/08/06 11:55:32;;;;;;;3.53;1.42;;;22.60;99.90;;;;;;5129339;27;20152;-83
2023/08/06 11:58:02;;;;;;;2.67;1.33;;;22.70;99.90;;;;;;5110467;27;20401;-83
2023/08/06 12:00:29;;;;;;;2.13;1.20;;;22.70;99.90;;;;;;5110900;28;20047;-83
2023/08/06 12:02:55;;;;;;;3.20;1.63;;;22.60;99.90;;;;;;5112608;27;20489;-84
2023/08/06 12:05:33;;;;;;;3.13;1.50;;;22.50;99.90;;;;;;5118035;28;20393;-83
2023/08/06 12:08:00;;;;;;;2.90;1.38;;;22.50;99.90;;;;;;5119803;27;20130;-83
2023/08/06 12:10:28;;;;;;;4.53;1.50;;;22.50;99.90;;;;;;5112754;28;20031;-83
2023/08/06 12:12:54;;;;;;;2.85;1.38;;;22.60;99.90;;;;;;5111067;28;20031;-83
2023/08/06 12:15:19;;;;;;;2.83;1.38;;;22.70;99.90;;;;;;5111313;27;20037;-83
2023/08/06 12:17:45;;;;;;;3.75;1.33;;;22.70;99.90;;;;;;5111589;28;20415;-83
2023/08/06 12:20:11;;;;;;;2.40;1.20;;;22.70;99.90;;;;;;5121091;28;20035;-84
2023/08/06 12:22:39;;;;;;;3.33;1.55;;;22.80;99.90;;;;;;5094225;27;20027;-83
2023/08/06 12:25:12;;;;;;;3.70;1.55;;;22.90;99.90;;;;;;5129536;27;20047;-83
2023/08/06 12:27:42;;;;;;;2.85;1.40;;;23.10;99.90;;;;;;5113867;27;20023;-84
2023/08/06 12:30:09;;;;;;;2.70;1.15;;;23.20;99.90;;;;;;5132893;27;20485;-83
2023/08/06 12:32:35;;;;;;;4.30;1.58;;;23.30;99.90;;;;;;5127692;27;20035;-83
2023/08/06 12:35:01;;;;;;;3.45;1.60;;;23.50;99.90;;;;;;5114502;27;20421;-83